Howland, Ohio
Current Conditions -  °F | °C
As of 11:06 AM on Monday 26 Jan 2015 (Local Time) from KYNG Reporting Station
Light Snow Light Snow  
Wind Chill: 10°   Ceiling: 2500
Heat Index: 21°   Visibility: 1mi
Dew Point: 16°   Wind: 10mph
Humidity: 81%   Direction: 10°N
Pressure: 29.78"   Gusts: NA
Location:  41.234°N, 80.7496°W
Report Text: KYNG 261606Z 01009KT 1SM -SN BR BKN025 BKN035 OVC045 M06/M09 A2978 RMK AO2 T10611089
Loading
Personal Weather Stations






























Interactive Weather Map New forecast layout! Learn more

10-Day Weather Forecast

Advertisements
Track Severe Weather on mobile